Time;durP1;ratioP1;P1;durP2;ratioP2;P2;SDS_P1;SDS_P2;PMS_P1;PMS_P2;Temp;Humidity;BMP_temperature;BMP_pressure;BME280_temperature;BME280_humidity;BME280_pressure;Samples;Min_cycle;Max_cycle;Signal;HPM_P1;HPM_P2
2024/01/02 00:01:54;;;;;;;;;;;5.70;99.90;;;;;;5049461;28;19933;-33
2024/01/02 00:04:24;;;;;;;;;;;5.80;99.90;;;;;;5050752;28;19924;-33
2024/01/02 00:06:50;;;;;;;;;;;5.80;99.90;;;;;;5051219;28;19929;-32
2024/01/02 00:09:17;;;;;;;;;;;5.80;99.90;;;;;;5053354;28;19978;-33
2024/01/02 00:11:44;;;;;;;;;;;5.80;99.90;;;;;;5054430;28;19924;-32
2024/01/02 00:14:10;;;;;;;;;;;5.90;99.90;;;;;;5052754;28;19928;-36
2024/01/02 00:16:37;;;;;;;;;;;5.90;99.90;;;;;;5051890;28;20376;-34
2024/01/02 00:19:03;;;;;;;;;;;5.90;99.90;;;;;;5052902;28;19967;-35
2024/01/02 00:21:31;;;;;;;;;;;5.90;99.90;;;;;;5052490;28;19933;-35
2024/01/02 00:23:59;;;;;;;;;;;5.90;99.90;;;;;;5052883;28;19971;-33
2024/01/02 00:26:25;;;;;;;;;;;6.00;99.90;;;;;;5052282;28;20011;-34
2024/01/02 00:28:52;;;;;;;;;;;6.00;99.90;;;;;;5053808;28;20446;-34
2024/01/02 00:31:19;;;;;;;;;;;6.00;99.90;;;;;;5051538;28;19925;-34
2024/01/02 00:33:45;;;;;;;;;;;6.00;99.90;;;;;;5052703;28;19932;-33
2024/01/02 00:36:12;;;;;;;;;;;6.00;99.90;;;;;;5051510;28;20062;-34
2024/01/02 00:38:40;;;;;;;;;;;6.00;99.90;;;;;;5051621;28;19991;-33
2024/01/02 00:41:07;;;;;;;;;;;5.90;99.90;;;;;;5053619;28;20328;-34
2024/01/02 00:43:33;;;;;;;;;;;6.00;99.90;;;;;;5053194;28;19931;-32
2024/01/02 00:46:00;;;;;;;;;;;6.00;99.90;;;;;;5049282;28;20384;-34
2024/01/02 00:48:27;;;;;;;;;;;6.10;99.90;;;;;;5053368;28;19978;-35
2024/01/02 00:50:54;;;;;;;;;;;6.10;99.90;;;;;;5051405;28;20514;-34
2024/01/02 00:53:20;;;;;;;;;;;6.20;99.90;;;;;;5051491;28;19929;-34
2024/01/02 00:55:48;;;;;;;;;;;6.10;99.90;;;;;;5052479;28;19925;-35
2024/01/02 00:58:15;;;;;;;;;;;6.10;99.90;;;;;;5054289;28;19994;-35
2024/01/02 01:00:42;;;;;;;;;;;6.20;99.90;;;;;;5050879;28;20283;-34
2024/01/02 01:03:08;;;;;;;;;;;6.20;99.90;;;;;;5050109;28;19932;-35
2024/01/02 01:05:35;;;;;;;;;;;6.20;99.90;;;;;;5049220;28;19928;-33
2024/01/02 01:08:01;;;;;;;;;;;6.20;99.90;;;;;;5046308;28;19987;-33
2024/01/02 01:10:28;;;;;;;;;;;6.20;99.90;;;;;;5044756;28;19925;-34
2024/01/02 01:12:56;;;;;;;;;;;6.20;99.90;;;;;;5051934;28;19925;-33
2024/01/02 01:15:23;;;;;;;;;;;6.20;99.90;;;;;;5052839;28;19925;-33
2024/01/02 01:17:49;;;;;;;;;;;6.20;99.90;;;;;;5051848;28;19972;-34
2024/01/02 01:20:16;;;;;;;;;;;6.30;99.90;;;;;;5049313;28;19975;-34
2024/01/02 01:22:43;;;;;;;;;;;6.20;99.90;;;;;;5052215;28;19970;-33
2024/01/02 01:25:09;;;;;;;;;;;6.20;99.90;;;;;;5052376;28;19932;-34
2024/01/02 01:27:36;;;;;;;;;;;6.30;99.90;;;;;;5051009;28;19925;-36
2024/01/02 01:30:04;;;;;;;;;;;6.30;99.90;;;;;;5050463;28;19924;-33
2024/01/02 01:32:31;;;;;;;;;;;6.30;99.90;;;;;;5053787;28;19932;-34
2024/01/02 01:34:58;;;;;;;;;;;6.30;99.90;;;;;;5048773;28;19936;-33
2024/01/02 01:37:25;;;;;;;;;;;6.30;99.90;;;;;;5051807;28;19947;-33
2024/01/02 01:39:51;;;;;;;;;;;6.30;99.90;;;;;;5052064;28;19968;-34
2024/01/02 01:42:18;;;;;;;;;;;6.30;99.90;;;;;;5051587;28;19929;-34
2024/01/02 01:44:44;;;;;;;;;;;6.30;99.90;;;;;;5051152;28;20300;-33
2024/01/02 01:47:12;;;;;;;;;;;6.40;99.90;;;;;;5049069;28;19947;-34
2024/01/02 01:49:39;;;;;;;;;;;6.40;99.90;;;;;;5050751;28;20331;-34
2024/01/02 01:52:06;;;;;;;;;;;6.30;99.90;;;;;;5051840;28;19928;-33
2024/01/02 01:54:33;;;;;;;;;;;6.40;99.90;;;;;;5052228;28;19925;-32
2024/01/02 01:56:59;;;;;;;;;;;6.40;99.90;;;;;;5050621;28;19972;-33
2024/01/02 01:59:26;;;;;;;;;;;6.40;99.90;;;;;;5052601;28;19975;-34
2024/01/02 02:01:53;;;;;;;;;;;6.40;99.90;;;;;;5047638;28;19986;-36
2024/01/02 02:04:21;;;;;;;;;;;6.40;99.90;;;;;;5051984;28;19971;-33
2024/01/02 02:06:47;;;;;;;;;;;6.50;99.90;;;;;;5051603;28;19925;-32
2024/01/02 02:09:14;;;;;;;;;;;6.50;99.90;;;;;;5052047;28;19924;-33
2024/01/02 02:11:41;;;;;;;;;;;6.50;99.90;;;;;;5050501;28;20323;-34
2024/01/02 02:14:08;;;;;;;;;;;6.50;99.90;;;;;;5051002;28;20426;-34
2024/01/02 02:16:35;;;;;;;;;;;6.50;99.90;;;;;;5049085;28;19929;-33
2024/01/02 02:19:01;;;;;;;;;;;6.50;99.90;;;;;;5051769;28;20015;-35
2024/01/02 02:21:29;;;;;;;;;;;6.50;99.90;;;;;;5049777;28;20324;-35
2024/01/02 02:23:57;;;;;;;;;;;6.50;99.90;;;;;;5032445;28;19955;-34
2024/01/02 02:26:24;;;;;;;;;;;6.50;99.90;;;;;;5048759;28;19925;-35
2024/01/02 02:28:51;;;;;;;;;;;6.50;99.90;;;;;;5051434;28;19975;-34
2024/01/02 02:31:17;;;;;;;;;;;6.50;99.90;;;;;;5046946;28;20335;-33
2024/01/02 02:33:44;;;;;;;;;;;6.50;99.90;;;;;;5050862;28;20263;-34
2024/01/02 02:36:11;;;;;;;;;;;6.50;99.90;;;;;;5047831;28;19971;-35
2024/01/02 02:38:37;;;;;;;;;;;6.50;99.90;;;;;;5050720;28;19924;-34
2024/01/02 02:41:05;;;;;;;;;;;6.50;99.90;;;;;;5049881;28;19929;-33
2024/01/02 02:43:32;;;;;;;;;;;6.60;99.90;;;;;;5049131;28;19971;-35
2024/01/02 02:45:58;;;;;;;;;;;6.60;99.90;;;;;;5048732;28;19929;-34
2024/01/02 02:48:25;;;;;;;;;;;6.60;99.90;;;;;;5051451;28;19929;-34
2024/01/02 02:50:52;;;;;;;;;;;6.60;99.90;;;;;;5048545;28;20014;-35
2024/01/02 02:53:19;;;;;;;;;;;6.50;99.90;;;;;;5051336;28;19925;-34
2024/01/02 02:55:45;;;;;;;;;;;6.60;99.90;;;;;;5049495;28;19925;-35
2024/01/02 02:58:13;;;;;;;;;;;6.60;99.90;;;;;;5050142;28;19935;-34
2024/01/02 03:00:40;;;;;;;;;;;6.60;99.90;;;;;;5048797;28;20180;-34
2024/01/02 03:03:07;;;;;;;;;;;6.60;99.90;;;;;;5051740;28;20399;-33
2024/01/02 03:05:33;;;;;;;;;;;6.60;99.90;;;;;;5048240;28;19979;-33
2024/01/02 03:08:00;;;;;;;;;;;6.60;99.90;;;;;;5051229;28;19978;-34
2024/01/02 03:10:26;;;;;;;;;;;6.60;99.90;;;;;;5048956;28;20231;-35
2024/01/02 03:12:53;;;;;;;;;;;6.60;99.90;;;;;;5050385;28;19925;-33
2024/01/02 03:15:21;;;;;;;;;;;6.60;99.90;;;;;;5031176;28;19929;-33
2024/01/02 03:17:48;;;;;;;;;;;6.70;99.90;;;;;;5030722;28;19978;-34
2024/01/02 03:20:15;;;;;;;;;;;6.60;99.90;;;;;;5049794;28;19925;-34
2024/01/02 03:22:41;;;;;;;;;;;6.70;99.90;;;;;;5050825;28;20365;-34
2024/01/02 03:25:08;;;;;;;;;;;6.70;99.90;;;;;;5033923;28;19971;-34
2024/01/02 03:27:35;;;;;;;;;;;6.70;99.90;;;;;;5051136;28;20067;-34
2024/01/02 03:30:03;;;;;;;;;;;6.70;99.90;;;;;;5049177;28;20431;-34
2024/01/02 03:32:31;;;;;;;;;;;6.70;99.90;;;;;;5050787;28;19979;-34
2024/01/02 03:34:58;;;;;;;;;;;6.70;99.90;;;;;;5049536;28;19928;-32
2024/01/02 03:37:24;;;;;;;;;;;6.70;99.90;;;;;;5049686;28;20039;-33
2024/01/02 03:39:51;;;;;;;;;;;6.70;99.90;;;;;;5051118;28;19970;-35
2024/01/02 03:42:18;;;;;;;;;;;6.70;99.90;;;;;;5042229;28;19974;-34
2024/01/02 03:44:44;;;;;;;;;;;6.70;99.90;;;;;;5049024;28;19974;-34
2024/01/02 03:47:12;;;;;;;;;;;6.70;99.90;;;;;;5048645;28;20369;-35
2024/01/02 03:49:40;;;;;;;;;;;6.70;99.90;;;;;;5046088;28;20004;-34
2024/01/02 03:52:06;;;;;;;;;;;6.70;99.90;;;;;;5050986;28;19925;-35
2024/01/02 03:54:33;;;;;;;;;;;6.60;99.90;;;;;;5048294;28;20346;-33
2024/01/02 03:56:59;;;;;;;;;;;6.70;99.90;;;;;;5048879;28;19983;-33
2024/01/02 03:59:26;;;;;;;;;;;6.60;99.90;;;;;;5050341;28;19970;-34
2024/01/02 04:01:53;;;;;;;;;;;6.70;99.90;;;;;;5048467;28;20003;-34
2024/01/02 04:04:20;;;;;;;;;;;6.70;99.90;;;;;;5049909;28;20387;-33
2024/01/02 04:06:48;;;;;;;;;;;6.60;99.90;;;;;;5050048;28;19929;-33
2024/01/02 04:09:14;;;;;;;;;;;6.70;99.90;;;;;;5048902;28;19979;-33
2024/01/02 04:11:41;;;;;;;;;;;6.70;99.90;;;;;;5046905;28;19978;-33
2024/01/02 04:14:07;;;;;;;;;;;6.60;99.90;;;;;;5050483;28;19925;-34
2024/01/02 04:16:34;;;;;;;;;;;6.70;99.90;;;;;;5053599;28;19929;-33
2024/01/02 04:19:01;;;;;;;;;;;6.70;99.90;;;;;;5051148;28;19979;-33
2024/01/02 04:21:27;;;;;;;;;;;6.70;99.90;;;;;;5053725;28;19970;-34
2024/01/02 04:23:56;;;;;;;;;;;6.70;99.90;;;;;;5053075;28;19925;-33
2024/01/02 04:26:22;;;;;;;;;;;6.70;99.90;;;;;;5051061;28;19977;-33
2024/01/02 04:28:49;;;;;;;;;;;6.70;99.90;;;;;;5050809;28;19968;-33
2024/01/02 04:31:16;;;;;;;;;;;6.70;99.90;;;;;;5051532;28;19928;-33
2024/01/02 04:33:42;;;;;;;;;;;6.70;99.90;;;;;;5052246;28;19929;-34
2024/01/02 04:36:09;;;;;;;;;;;6.70;99.90;;;;;;5051806;28;19925;-33
2024/01/02 04:38:36;;;;;;;;;;;6.70;99.90;;;;;;5047363;28;20075;-33
2024/01/02 04:41:05;;;;;;;;;;;6.70;99.90;;;;;;5048842;28;19932;-33
2024/01/02 04:43:32;;;;;;;;;;;6.70;99.90;;;;;;5051713;28;19929;-33
2024/01/02 04:45:59;;;;;;;;;;;6.70;99.90;;;;;;5052195;28;19978;-33
2024/01/02 04:48:26;;;;;;;;;;;6.70;99.90;;;;;;5051655;28;19956;-33
2024/01/02 04:50:53;;;;;;;;;;;6.70;99.90;;;;;;5048199;28;19935;-34
2024/01/02 04:53:19;;;;;;;;;;;6.70;99.90;;;;;;5053677;28;19931;-35
2024/01/02 04:55:46;;;;;;;;;;;6.70;99.90;;;;;;5051774;28;19925;-35
2024/01/02 04:58:14;;;;;;;;;;;6.70;99.90;;;;;;5048321;28;19932;-34
2024/01/02 05:00:41;;;;;;;;;;;6.70;99.90;;;;;;5049636;28;19925;-33
2024/01/02 05:03:07;;;;;;;;;;;6.70;99.90;;;;;;5050901;28;19979;-35
2024/01/02 05:05:34;;;;;;;;;;;6.70;99.90;;;;;;5051464;28;19971;-35
2024/01/02 05:08:01;;;;;;;;;;;6.70;99.90;;;;;;5049929;28;20002;-34
2024/01/02 05:10:28;;;;;;;;;;;6.70;99.90;;;;;;5046582;28;20676;-33
2024/01/02 05:12:55;;;;;;;;;;;6.70;99.90;;;;;;5052127;28;20268;-32
2024/01/02 05:15:23;;;;;;;;;;;6.70;99.90;;;;;;5048090;28;20428;-34
2024/01/02 05:17:50;;;;;;;;;;;6.70;99.90;;;;;;5051208;28;19975;-34
2024/01/02 05:20:17;;;;;;;;;;;6.70;99.90;;;;;;5048954;28;19925;-35
2024/01/02 05:22:43;;;;;;;;;;;6.70;99.90;;;;;;5052057;28;19972;-33
2024/01/02 05:25:10;;;;;;;;;;;6.70;99.90;;;;;;5050505;28;19971;-33
2024/01/02 05:27:36;;;;;;;;;;;6.70;99.90;;;;;;5051560;28;20462;-34
2024/01/02 05:30:03;;;;;;;;;;;6.70;99.90;;;;;;5049549;28;19982;-34
2024/01/02 05:32:31;;;;;;;;;;;6.70;99.90;;;;;;5050123;28;20344;-34
2024/01/02 05:34:58;;;;;;;;;;;6.70;99.90;;;;;;5051878;28;20266;-34
2024/01/02 05:37:25;;;;;;;;;;;6.70;99.90;;;;;;5052543;28;19924;-36
2024/01/02 05:39:50;;;;;;;;;;;6.70;99.90;;;;;;5050706;28;19968;-34
2024/01/02 05:42:17;;;;;;;;;;;6.70;99.90;;;;;;5049863;28;19963;-35
2024/01/02 05:44:43;;;;;;;;;;;6.70;99.90;;;;;;5049580;28;19964;-32
2024/01/02 05:47:10;;;;;;;;;;;6.70;99.90;;;;;;5050361;28;19972;-35
2024/01/02 05:49:38;;;;;;;;;;;6.70;99.90;;;;;;5049220;28;20361;-32
2024/01/02 05:52:05;;;;;;;;;;;6.70;99.90;;;;;;5049008;28;19986;-33
2024/01/02 05:54:32;;;;;;;;;;;6.70;99.90;;;;;;5050778;28;19932;-32
2024/01/02 05:56:58;;;;;;;;;;;6.70;99.90;;;;;;5052638;28;19929;-33
2024/01/02 05:59:25;;;;;;;;;;;6.70;99.90;;;;;;5050812;28;19924;-34
2024/01/02 06:01:52;;;;;;;;;;;6.70;99.90;;;;;;5051444;28;19924;-36
2024/01/02 06:04:18;;;;;;;;;;;6.80;99.90;;;;;;5050067;28;19968;-34
2024/01/02 06:06:46;;;;;;;;;;;6.70;99.90;;;;;;5052196;28;19947;-33
2024/01/02 06:09:13;;;;;;;;;;;6.80;99.90;;;;;;5052988;28;19936;-33
2024/01/02 06:11:39;;;;;;;;;;;6.80;99.90;;;;;;5052371;28;19976;-35
2024/01/02 06:14:08;;;;;;;;;;;6.80;99.90;;;;;;5050467;28;19932;-33
2024/01/02 06:16:35;;;;;;;;;;;6.80;99.90;;;;;;5052139;28;19925;-33
2024/01/02 06:19:02;;;;;;;;;;;6.80;99.90;;;;;;5050979;28;20118;-35
2024/01/02 06:21:28;;;;;;;;;;;6.80;99.90;;;;;;5050492;28;20013;-35
2024/01/02 06:23:56;;;;;;;;;;;6.80;99.90;;;;;;5051621;28;20422;-34
2024/01/02 06:26:23;;;;;;;;;;;6.90;99.90;;;;;;5051710;28;19933;-36
2024/01/02 06:28:49;;;;;;;;;;;6.90;99.90;;;;;;5050296;28;19960;-34
2024/01/02 06:31:16;;;;;;;;;;;6.90;99.90;;;;;;5051202;28;19928;-34
2024/01/02 06:33:44;;;;;;;;;;;6.90;99.90;;;;;;5049124;28;19925;-33
2024/01/02 06:36:11;;;;;;;;;;;7.00;99.90;;;;;;5051401;28;19925;-34
2024/01/02 06:38:38;;;;;;;;;;;7.00;99.90;;;;;;5050788;28;20041;-35
2024/01/02 06:41:06;;;;;;;;;;;7.10;99.90;;;;;;5050649;28;19935;-33
2024/01/02 06:43:33;;;;;;;;;;;7.00;99.90;;;;;;5049342;28;19925;-33
2024/01/02 06:46:00;;;;;;;;;;;7.10;99.90;;;;;;5049767;28;19931;-34
2024/01/02 06:48:27;;;;;;;;;;;7.10;99.90;;;;;;5049017;28;20474;-35
2024/01/02 06:50:53;;;;;;;;;;;7.10;99.90;;;;;;5050069;28;19928;-34
2024/01/02 06:53:20;;;;;;;;;;;7.20;99.90;;;;;;5050145;28;20011;-32
2024/01/02 06:55:47;;;;;;;;;;;7.20;99.90;;;;;;5048242;28;19925;-34
2024/01/02 06:58:15;;;;;;;;;;;7.20;99.90;;;;;;5050882;28;20371;-34
2024/01/02 07:00:41;;;;;;;;;;;7.20;99.90;;;;;;5050786;28;20284;-34
2024/01/02 07:03:09;;;;;;;;;;;7.20;99.90;;;;;;5048716;28;19925;-33
2024/01/02 07:05:36;;;;;;;;;;;7.30;99.90;;;;;;5050226;28;19931;-34
2024/01/02 07:08:03;;;;;;;;;;;7.30;99.90;;;;;;5049370;28;19929;-34
2024/01/02 07:10:30;;;;;;;;;;;7.30;99.90;;;;;;5050183;28;19929;-34
2024/01/02 07:12:56;;;;;;;;;;;7.30;99.90;;;;;;5049302;28;20365;-34
2024/01/02 07:15:24;;;;;;;;;;;7.40;99.90;;;;;;5050837;28;20018;-34
2024/01/02 07:17:51;;;;;;;;;;;7.40;99.90;;;;;;5047206;28;19975;-35
2024/01/02 07:20:20;;;;;;;;;;;7.40;99.90;;;;;;5050158;28;19924;-34
2024/01/02 07:22:47;;;;;;;;;;;7.50;99.90;;;;;;5049837;28;19935;-34
2024/01/02 07:25:14;;;;;;;;;;;7.50;99.90;;;;;;5049651;28;19933;-33
2024/01/02 07:27:40;;;;;;;;;;;7.50;99.90;;;;;;5050151;28;19940;-33
2024/01/02 07:30:08;;;;;;;;;;;7.60;99.90;;;;;;5049986;28;19971;-32
2024/01/02 07:32:36;;;;;;;;;;;7.60;99.90;;;;;;5038015;28;20016;-32
2024/01/02 07:35:03;;;;;;;;;;;7.60;99.90;;;;;;5049490;28;20007;-34
2024/01/02 07:37:31;;;;;;;;;;;7.60;99.90;;;;;;5049536;28;20382;-33
2024/01/02 07:39:58;;;;;;;;;;;7.70;99.90;;;;;;5049417;28;19931;-33
2024/01/02 07:42:25;;;;;;;;;;;7.70;99.90;;;;;;5047754;28;19971;-34
2024/01/02 07:44:51;;;;;;;;;;;7.80;99.90;;;;;;5049665;28;19931;-34
2024/01/02 07:47:18;;;;;;;;;;;7.80;99.90;;;;;;5035292;28;19940;-32
2024/01/02 07:49:46;;;;;;;;;;;7.90;99.90;;;;;;5041798;28;20454;-33
2024/01/02 07:52:13;;;;;;;;;;;7.80;99.90;;;;;;5051435;28;20269;-33
2024/01/02 07:54:39;;;;;;;;;;;7.90;99.90;;;;;;5036203;28;21140;-33
2024/01/02 07:57:06;;;;;;;;;;;8.00;99.90;;;;;;5038376;28;19979;-33
2024/01/02 07:59:33;;;;;;;;;;;8.10;99.90;;;;;;5052922;28;19929;-34
2024/01/02 08:02:00;;;;;;;;;;;8.30;99.90;;;;;;5052887;28;20364;-34
2024/01/02 08:04:27;;;;;;;;;;;8.30;99.90;;;;;;5053964;28;20016;-33
2024/01/02 08:06:57;;;;;;;;;;;8.30;99.90;;;;;;5052371;28;20380;-33
2024/01/02 08:09:24;;;;;;;;;;;8.40;99.90;;;;;;5052398;28;20035;-33
2024/01/02 08:11:51;;;;;;;;;;;8.40;99.90;;;;;;5051689;28;19931;-33
2024/01/02 08:14:17;;;;;;;;;;;8.50;99.90;;;;;;5051269;28;19925;-34
2024/01/02 08:16:44;;;;;;;;;;;8.50;99.90;;;;;;5053962;28;19924;-33
2024/01/02 08:19:11;;;;;;;;;;;8.60;99.90;;;;;;5052596;28;20311;-34
2024/01/02 08:21:37;;;;;;;;;;;8.60;99.90;;;;;;5050900;28;19925;-34
2024/01/02 08:24:05;;;;;;;;;;;8.70;99.90;;;;;;5050665;28;19925;-32
2024/01/02 08:26:32;;;;;;;;;;;8.70;99.90;;;;;;5052269;28;20377;-33
2024/01/02 08:28:59;;;;;;;;;;;8.80;99.90;;;;;;5052410;28;19925;-34
2024/01/02 08:31:26;;;;;;;;;;;8.90;99.90;;;;;;5052611;28;19928;-33
2024/01/02 08:33:52;;;;;;;;;;;8.90;99.90;;;;;;5051035;28;19928;-35
2024/01/02 08:36:20;;;;;;;;;;;9.00;99.90;;;;;;5051690;28;19925;-33
2024/01/02 08:38:47;;;;;;;;;;;9.10;99.90;;;;;;5050636;28;20052;-34
2024/01/02 08:41:15;;;;;;;;;;;9.10;99.90;;;;;;5051074;28;19929;-33
2024/01/02 08:43:41;;;;;;;;;;;9.10;99.90;;;;;;5052422;28;20300;-34
2024/01/02 08:46:08;;;;;;;;;;;9.20;99.90;;;;;;5051868;28;19925;-33
2024/01/02 08:48:35;;;;;;;;;;;9.20;99.90;;;;;;5052069;28;19928;-34
2024/01/02 08:51:01;;;;;;;;;;;9.30;99.90;;;;;;5050475;28;19925;-33
2024/01/02 08:53:28;;;;;;;;;;;9.30;99.90;;;;;;5049876;28;20430;-33
2024/01/02 08:55:55;;;;;;;;;;;9.30;99.90;;;;;;5052174;28;20383;-33
2024/01/02 08:58:23;;;;;;;;;;;9.40;99.90;;;;;;5052662;28;19925;-33
2024/01/02 09:00:50;;;;;;;;;;;9.40;99.90;;;;;;5052021;28;19971;-34
2024/01/02 09:03:17;;;;;;;;;;;9.50;99.90;;;;;;5051230;28;20019;-33
2024/01/02 09:05:43;;;;;;;;;;;9.60;99.90;;;;;;5051721;28;19929;-33
2024/01/02 09:08:11;;;;;;;;;;;9.60;99.90;;;;;;5044878;28;19933;-35
2024/01/02 09:10:39;;;;;;;;;;;9.60;99.90;;;;;;5048507;28;19925;-33
2024/01/02 09:13:05;;;;;;;;;;;9.70;99.90;;;;;;5052370;28;20351;-33
2024/01/02 09:15:35;;;;;;;;;;;9.70;99.90;;;;;;5050251;28;19929;-32
2024/01/02 09:18:02;;;;;;;;;;;9.70;99.90;;;;;;5051349;28;19932;-34
2024/01/02 09:20:28;;;;;;;;;;;9.70;99.90;;;;;;5050794;28;20367;-33
2024/01/02 09:22:55;;;;;;;;;;;9.80;99.90;;;;;;5050518;28;19924;-33
2024/01/02 09:25:23;;;;;;;;;;;9.80;99.90;;;;;;5046649;28;19925;-33
2024/01/02 09:27:50;;;;;;;;;;;9.80;99.90;;;;;;5046906;28;19925;-35
2024/01/02 09:30:17;;;;;;;;;;;9.90;99.90;;;;;;5049954;28;19978;-32
2024/01/02 09:32:45;;;;;;;;;;;9.90;99.90;;;;;;5051046;28;19951;-33
2024/01/02 09:35:12;;;;;;;;;;;9.90;99.90;;;;;;5050801;28;19990;-34
2024/01/02 09:37:38;;;;;;;;;;;9.90;99.90;;;;;;5051988;28;19962;-34
2024/01/02 09:40:07;;;;;;;;;;;10.00;99.90;;;;;;5050473;28;19924;-34
2024/01/02 09:42:38;;;;;;;;;;;10.00;99.90;;;;;;5052296;28;19970;-33
2024/01/02 09:45:09;;;;;;;;;;;10.00;99.90;;;;;;5051424;28;19933;-34
2024/01/02 09:47:44;;;;;;;;;;;10.00;99.90;;;;;;5048955;28;19925;-36
2024/01/02 09:50:13;;;;;;;;;;;10.10;99.90;;;;;;5048851;28;19929;-34
2024/01/02 09:52:45;;;;;;;;;;;10.10;99.90;;;;;;5046905;28;19925;-34
2024/01/02 09:55:15;;;;;;;;;;;10.20;99.90;;;;;;5050360;28;19925;-34
2024/01/02 09:57:45;;;;;;;;;;;10.20;99.90;;;;;;5030939;28;20020;-34
2024/01/02 10:00:16;;;;;;;;;;;10.20;99.90;;;;;;5030717;28;19984;-35
2024/01/02 10:02:48;;;;;;;;;;;10.20;99.90;;;;;;5042185;28;19991;-34
2024/01/02 10:05:18;;;;;;;;;;;10.20;99.90;;;;;;5034319;28;20377;-35
2024/01/02 10:07:52;;;;;;;;;;;10.30;99.90;;;;;;5050665;28;20027;-33
2024/01/02 10:10:20;;;;;;;;;;;10.20;99.90;;;;;;5051173;28;19925;-34
2024/01/02 10:12:51;;;;;;;;;;;10.30;99.90;;;;;;5049922;28;20248;-34
2024/01/02 10:15:20;;;;;;;;;;;10.30;99.90;;;;;;5050472;28;19925;-33
2024/01/02 10:17:50;;;;;;;;;;;10.40;99.90;;;;;;5047690;28;19925;-33
2024/01/02 10:20:22;;;;;;;;;;;10.30;99.90;;;;;;5051430;28;20321;-34
2024/01/02 10:22:51;;;;;;;;;;;10.40;99.90;;;;;;5051346;28;20024;-33
2024/01/02 10:25:18;;;;;;;;;;;10.40;99.90;;;;;;5051363;28;19925;-33
2024/01/02 10:27:46;;;;;;;;;;;10.40;99.90;;;;;;5050194;28;19929;-34
2024/01/02 10:30:13;;;;;;;;;;;10.40;99.90;;;;;;5050384;28;19929;-34
2024/01/02 10:32:41;;;;;;;;;;;10.50;99.90;;;;;;5050079;28;20339;-33
2024/01/02 10:35:10;;;;;;;;;;;10.50;99.90;;;;;;5050095;28;19925;-33
2024/01/02 10:37:39;;;;;;;;;;;10.50;99.90;;;;;;5051147;28;20441;-36
2024/01/02 10:40:07;;;;;;;;;;;10.60;99.90;;;;;;5051335;28;19925;-34
2024/01/02 10:42:38;;;;;;;;;;;10.50;99.90;;;;;;5048968;28;20410;-32
2024/01/02 10:45:09;;;;;;;;;;;10.50;99.90;;;;;;5051370;28;19961;-34
2024/01/02 10:47:38;;;;;;;;;;;10.50;99.90;;;;;;5049333;28;19981;-35
2024/01/02 10:50:05;;;;;;;;;;;10.60;99.90;;;;;;5050265;28;19925;-34
2024/01/02 10:52:34;;;;;;;;;;;10.60;99.90;;;;;;5048692;28;19929;-33
2024/01/02 10:55:04;;;;;;;;;;;10.60;99.90;;;;;;5050593;28;19925;-35
2024/01/02 10:57:35;;;;;;;;;;;10.60;99.90;;;;;;5050971;28;19986;-33
2024/01/02 11:00:07;;;;;;;;;;;10.60;99.90;;;;;;5050854;28;20030;-36
2024/01/02 11:02:37;;;;;;;;;;;10.70;99.90;;;;;;5041837;28;19924;-34
2024/01/02 11:05:07;;;;;;;;;;;10.70;99.90;;;;;;5050845;28;19929;-36
2024/01/02 11:07:35;;;;;;;;;;;10.70;99.90;;;;;;5049499;28;19986;-34
2024/01/02 11:10:04;;;;;;;;;;;10.70;99.90;;;;;;5049486;28;19929;-34
2024/01/02 11:12:33;;;;;;;;;;;10.80;99.90;;;;;;5049852;28;19925;-34
2024/01/02 11:15:00;;;;;;;;;;;10.80;99.90;;;;;;5050846;28;19995;-34
2024/01/02 11:17:26;;;;;;;;;;;10.80;99.90;;;;;;5048415;28;20373;-33
2024/01/02 11:19:56;;;;;;;;;;;10.80;99.90;;;;;;5049587;28;19978;-33
2024/01/02 11:22:23;;;;;;;;;;;10.80;99.90;;;;;;5048781;28;19936;-34
2024/01/02 11:24:50;;;;;;;;;;;10.80;99.90;;;;;;5053050;28;20399;-34
2024/01/02 11:27:18;;;;;;;;;;;10.80;99.90;;;;;;5053975;28;19982;-35
2024/01/02 11:29:45;;;;;;;;;;;10.90;99.90;;;;;;5053494;28;19955;-33
2024/01/02 11:32:14;;;;;;;;;;;10.80;99.90;;;;;;5051836;28;19928;-34
2024/01/02 11:34:45;;;;;;;;;;;10.90;99.90;;;;;;5049931;28;19925;-35
2024/01/02 11:37:13;;;;;;;;;;;10.90;99.90;;;;;;5054440;28;19924;-35
2024/01/02 11:39:43;;;;;;;;;;;10.90;99.90;;;;;;5054772;28;19971;-36
2024/01/02 11:42:13;;;;;;;;;;;10.90;99.90;;;;;;5051847;28;19974;-35
2024/01/02 11:44:44;;;;;;;;;;;10.90;99.90;;;;;;5050499;28;20031;-34
2024/01/02 11:47:13;;;;;;;;;;;10.80;99.90;;;;;;5052843;28;20345;-34
2024/01/02 11:49:43;;;;;;;;;;;10.90;99.90;;;;;;5041223;28;19929;-33
2024/01/02 11:52:11;;;;;;;;;;;10.90;99.90;;;;;;5052692;28;20022;-33
2024/01/02 11:54:41;;;;;;;;;;;10.90;99.90;;;;;;5052787;28;20354;-33
2024/01/02 11:57:10;;;;;;;;;;;10.90;99.90;;;;;;5045729;28;20289;-33
2024/01/02 11:59:38;;;;;;;;;;;10.90;99.90;;;;;;5050800;28;19972;-34
2024/01/02 12:02:22;;;;;;;;;;;10.90;99.90;;;;;;5047510;28;19933;-35
2024/01/02 12:04:53;;;;;;;;;;;10.90;99.90;;;;;;5051897;28;20429;-34
2024/01/02 12:07:19;;;;;;;;;;;10.90;99.90;;;;;;5032965;28;19925;-32
2024/01/02 12:09:48;;;;;;;;;;;10.90;99.90;;;;;;5053270;28;20434;-33
2024/01/02 12:12:23;;;;;;;;;;;10.90;99.90;;;;;;5050478;28;19933;-33
2024/01/02 12:14:53;;;;;;;;;;;11.00;99.90;;;;;;5050949;28;19925;-34
2024/01/02 12:17:22;;;;;;;;;;;10.90;99.90;;;;;;5051138;28;19924;-33
2024/01/02 12:19:49;;;;;;;;;;;11.00;99.90;;;;;;5051993;28;19937;-34
2024/01/02 12:22:18;;;;;;;;;;;10.90;99.90;;;;;;5053829;28;20294;-33
2024/01/02 12:24:44;;;;;;;;;;;10.90;99.90;;;;;;5050995;28;19932;-34
2024/01/02 12:27:12;;;;;;;;;;;10.90;99.90;;;;;;5048871;28;19982;-36
2024/01/02 12:29:41;;;;;;;;;;;11.00;99.90;;;;;;5049201;28;19932;-34
2024/01/02 12:32:09;;;;;;;;;;;10.90;99.90;;;;;;5053252;28;19928;-33
2024/01/02 12:34:38;;;;;;;;;;;10.90;99.90;;;;;;5053112;28;20327;-34
2024/01/02 12:37:08;;;;;;;;;;;10.90;99.90;;;;;;5050342;28;19940;-33
2024/01/02 12:39:37;;;;;;;;;;;10.90;99.90;;;;;;5049786;28;20062;-34
2024/01/02 12:42:04;;;;;;;;;;;10.90;99.90;;;;;;5048748;28;19925;-33
2024/01/02 12:44:32;;;;;;;;;;;10.90;99.90;;;;;;5050550;28;20419;-34
2024/01/02 12:46:59;;;;;;;;;;;10.90;99.90;;;;;;5051392;28;19935;-37
2024/01/02 12:49:27;;;;;;;;;;;10.90;99.90;;;;;;5053091;28;19976;-34
2024/01/02 12:51:57;;;;;;;;;;;10.90;99.90;;;;;;5051788;28;19928;-36
2024/01/02 12:54:23;;;;;;;;;;;10.90;99.90;;;;;;5050626;28;20350;-36
2024/01/02 12:56:51;;;;;;;;;;;10.90;99.90;;;;;;5050262;28;19924;-35
2024/01/02 12:59:18;;;;;;;;;;;10.90;99.90;;;;;;5050403;28;19928;-34
2024/01/02 13:01:45;;;;;;;;;;;10.90;99.90;;;;;;5042540;28;19929;-33
2024/01/02 13:04:13;;;;;;;;;;;10.90;99.90;;;;;;5050066;28;19935;-34
2024/01/02 13:06:40;;;;;;;;;;;10.90;99.90;;;;;;5049575;28;19979;-34
2024/01/02 13:09:08;;;;;;;;;;;10.90;99.90;;;;;;5051222;28;20331;-34
2024/01/02 13:11:36;;;;;;;;;;;10.90;99.90;;;;;;5046918;28;19975;-34
2024/01/02 13:14:02;;;;;;;;;;;10.90;99.90;;;;;;5038757;28;19987;-34
2024/01/02 13:16:29;;;;;;;;;;;10.90;99.90;;;;;;5049128;28;20438;-33
2024/01/02 13:18:56;;;;;;;;;;;10.90;99.90;;;;;;5050411;28;19928;-34
2024/01/02 13:21:23;;;;;;;;;;;10.90;99.90;;;;;;5050045;28;19925;-33
2024/01/02 13:23:53;;;;;;;;;;;10.90;99.90;;;;;;5050172;28;19925;-35
2024/01/02 13:26:21;;;;;;;;;;;10.90;99.90;;;;;;5049774;28;19928;-35
2024/01/02 13:28:48;;;;;;;;;;;10.90;99.90;;;;;;5050191;28;19952;-34
2024/01/02 13:31:18;;;;;;;;;;;10.80;99.90;;;;;;5050145;28;20385;-34
2024/01/02 13:33:44;;;;;;;;;;;10.80;99.90;;;;;;5050520;28;20338;-34
2024/01/02 13:36:11;;;;;;;;;;;10.80;99.90;;;;;;5050791;28;19925;-33
2024/01/02 13:38:41;;;;;;;;;;;10.80;99.90;;;;;;5049153;28;20006;-34
2024/01/02 13:41:08;;;;;;;;;;;10.80;99.90;;;;;;5048684;28;20299;-33
2024/01/02 13:43:39;;;;;;;;;;;10.80;99.90;;;;;;5050144;28;19979;-33
2024/01/02 13:46:09;;;;;;;;;;;10.80;99.90;;;;;;5048876;28;19924;-34
2024/01/02 13:48:36;;;;;;;;;;;10.80;99.90;;;;;;5050105;28;19925;-33
2024/01/02 13:51:03;;;;;;;;;;;10.80;99.90;;;;;;5048460;28;19995;-35
2024/01/02 13:53:30;;;;;;;;;;;10.80;99.90;;;;;;5049929;28;19929;-34
2024/01/02 13:55:57;;;;;;;;;;;10.80;99.90;;;;;;5047536;28;19925;-33
2024/01/02 13:58:23;;;;;;;;;;;10.80;99.90;;;;;;5049910;28;20077;-33
2024/01/02 14:00:55;;;;;;;;;;;10.80;99.90;;;;;;5049581;28;20368;-33
2024/01/02 14:03:22;;;;;;;;;;;10.80;99.90;;;;;;5053297;28;19930;-34
2024/01/02 14:05:52;;;;;;;;;;;10.80;99.90;;;;;;5052366;28;19924;-34
2024/01/02 14:08:19;;;;;;;;;;;10.80;99.90;;;;;;5047831;28;20370;-33
2024/01/02 14:10:50;;;;;;;;;;;10.70;99.90;;;;;;5052157;28;20026;-34
2024/01/02 14:13:26;;;;;;;;;;;10.70;99.90;;;;;;5050812;28;20518;-34
2024/01/02 14:15:54;;;;;;;;;;;10.70;99.90;;;;;;5064860;28;19971;-35
2024/01/02 14:18:23;;;;;;;;;;;10.70;99.90;;;;;;5050029;28;20296;-34
2024/01/02 14:20:51;;;;;;;;;;;10.70;99.90;;;;;;5048080;28;19924;-34
2024/01/02 14:23:24;;;;;;;;;;;10.70;99.90;;;;;;5054414;28;19974;-34
2024/01/02 14:25:54;;;;;;;;;;;10.70;99.90;;;;;;5044406;28;20282;-34
2024/01/02 14:28:25;;;;;;;;;;;10.70;99.90;;;;;;5047932;28;20369;-36